Goshen, Massachusetts
Current Conditions -  °F | °C
As of 2:53 PM on Friday 24 Oct 2014 (Local Time) from KBAF Reporting Station
Overcast Overcast  
Wind Chill: 53°   Ceiling: 3200
Heat Index: 53°   Visibility: 10mi
Dew Point: 40°   Wind: 24mph
Humidity: 61%   Direction: 330°NNW
Pressure: 29.74"   Gusts: 32mph
Location:  42.44°N, 72.8°W
Report Text: KBAF 241853Z 33021G28KT 10SM OVC032 12/04 A2974 RMK AO2 PK WND 33028/1847 SLP071 T01170044
Loading
Personal Weather Stations






























Interactive Weather Map
Tropical Storm Tracking
New forecast layout! Learn more

10-Day Weather Forecast

Advertisements
Track Severe Weather on mobile